Ever Ursula — 3FCB9 — position and weather

sailwx.info

Track history (hours):
 
Tides and Currents Weather Stations Pressure Air Temp Water Temp Dewpoint Dewpoint Depression Visibility Wind Speed Wind Dir Waves Ship Positions

Ever Ursula

Last reported at 2016-Dec-10 12:27 UTC. Time now 2016-Dec-10 12:51 UTC.
Position N 36°34' E 122°43'.

Type: Ship (hazmat cat D). MMSI: 357737000.

Date/timePositionNaut miles runAvg speedWind from/ knotsBaromVisibWave heightAir tempDewpointWater temp
2016-Dec-10 12:27N 36°34' E 122°43'1516.3
2016-Dec-10 11:32N 36°43' E 122°59'12912.4
2016-Dec-10 01:09N 38°45' E 122°07'813.5
2016-Dec-10 00:33N 38°50' E 121°59'4 0.2
2016-Dec-09 06:29N 38°53' E 121°56'1112.2
2016-Dec-09 05:34N 38°42' E 121°54'5 4.8
2016-Dec-09 04:34N 38°37' E 121°54'1 1.2
2016-Dec-09 03:33N 38°38' E 121°52'4 3.9
2016-Dec-09 02:33N 38°35' E 121°49'1110.7
2016-Dec-09 01:34N 38°28' E 121°38'1313.3
2016-Dec-09 00:33N 38°29' E 121°21'1312.5
2016-Dec-08 23:33N 38°30' E 121°05'1212.3
2016-Dec-08 22:33N 38°33' E 120°50'1212.1
2016-Dec-08 21:33N 38°36' E 120°35'11612.7
2016-Dec-08 12:25N 38°54' E 118°08'8 9.2
2016-Dec-08 11:33N 38°57' E 117°58'9 8.8
2016-Dec-08 10:33N 38°59' E 117°47'1 1.0
2016-Dec-08 09:33N 39°00' E 117°47'0 0.0
2016-Dec-08 08:33N 39°00' E 117°47'0 0.0
2016-Dec-08 07:33N 39°00' E 117°47'0 0.0
2016-Dec-08 06:33N 39°00' E 117°47'0 0.0
2016-Dec-08 05:27N 39°00' E 117°47'0 0.0
2016-Dec-08 04:10N 39°00' E 117°47'0 0.0
2016-Dec-08 03:27N 39°00' E 117°47'0 0.0
2016-Dec-08 02:33N 39°00' E 117°47'0 0.0
2016-Dec-08 01:28N 39°00' E 117°47'0 0.0
2016-Dec-08 00:27N 39°00' E 117°47'0 0.0
2016-Dec-07 23:27N 39°00' E 117°47'0 0.1
2016-Dec-07 22:33N 39°00' E 117°47'0 0.1
2016-Dec-07 21:33N 39°00' E 117°47'0 0.0
2016-Dec-07 20:15N 39°00' E 117°47'0 0.0
2016-Dec-07 19:33N 39°00' E 117°47'0 0.0
2016-Dec-07 18:28N 39°00' E 117°47'0 0.1
2016-Dec-07 17:28N 39°00' E 117°47'0 0.0
2016-Dec-07 16:10N 39°00' E 117°47'0 0.0
2016-Dec-07 15:28N 39°00' E 117°47'0 0.0
2016-Dec-07 14:28N 39°00' E 117°47'0 0.0
2016-Dec-07 11:10N 39°00' E 117°47'0 0.0
2016-Dec-07 08:22N 39°00' E 117°47'0 0.1
2016-Dec-07 07:28N 39°00' E 117°47'0 0.0
2016-Dec-07 06:28N 39°00' E 117°47'0 0.0
2016-Dec-07 05:16N 39°00' E 117°47'0 0.0
2016-Dec-07 04:28N 39°00' E 117°47'0 0.0
2016-Dec-07 03:22N 39°00' E 117°47'0 0.0
2016-Dec-07 02:16N 39°00' E 117°47'0 0.0
2016-Dec-07 01:24N 39°00' E 117°47'0 0.0
2016-Dec-07 00:31N 39°00' E 117°47'0 0.0
2016-Dec-06 23:31N 39°00' E 117°47'0 0.0
2016-Dec-06 22:29N 39°00' E 117°47'0 0.0
2016-Dec-06 21:29N 39°00' E 117°47'0 0.0
2016-Dec-06 20:23N 39°00' E 117°47'0 0.0
2016-Dec-06 18:30N 39°00' E 117°47'0 0.0
2016-Dec-06 17:19N 39°00' E 117°47'0 0.0
2016-Dec-06 16:31N 39°00' E 117°47'0 0.0
2016-Dec-06 15:31N 39°00' E 117°47'0 0.0
2016-Dec-06 14:31N 39°00' E 117°47'0 0.0
2016-Dec-06 13:25N 39°00' E 117°47'0 0.0
2016-Dec-06 12:20N 39°00' E 117°47'1 1.7
2016-Dec-06 11:33N 38°59' E 117°48'8 8.2
2016-Dec-06 10:33N 38°57' E 117°58'9 8.7
2016-Dec-06 09:33N 38°55' E 118°09'6 5.9
2016-Dec-06 08:29N 38°52' E 118°16'1415.6
2016-Dec-06 07:33N 38°50' E 118°34'9218.2
2016-Dec-06 02:29N 38°39' E 120°32'1617.7
2016-Dec-06 01:33N 38°37' E 120°52'1918.1
2016-Dec-06 00:32N 38°29' E 121°14'  
2016-Dec-02 22:13N 22°18' E 114°06'2 0.1
2016-Dec-01 23:31N 22°20' E 114°07'  
Track history (hours):
 
Tides and Currents Weather Stations Pressure Air Temp Water Temp Dewpoint Dewpoint Depression Visibility Wind Speed Wind Dir Waves Ship Positions

Ever Ursula

Last reported at 2016-Dec-10 12:27 UTC. Time now 2016-Dec-10 12:51 UTC.
Position N 36°34' E 122°43'.

Type: Ship (hazmat cat D). MMSI: 357737000.

Date/timePositionNaut miles runAvg speedWind from/ knotsBaromVisibWave heightAir tempDewpointWater temp
2016-Dec-10 12:27N 36°34' E 122°43'1516.3
2016-Dec-10 11:32N 36°43' E 122°59'12912.4
2016-Dec-10 01:09N 38°45' E 122°07'813.5
2016-Dec-10 00:33N 38°50' E 121°59'4 0.2
2016-Dec-09 06:29N 38°53' E 121°56'1112.2
2016-Dec-09 05:34N 38°42' E 121°54'5 4.8
2016-Dec-09 04:34N 38°37' E 121°54'1 1.2
2016-Dec-09 03:33N 38°38' E 121°52'4 3.9
2016-Dec-09 02:33N 38°35' E 121°49'1110.7
2016-Dec-09 01:34N 38°28' E 121°38'1313.3
2016-Dec-09 00:33N 38°29' E 121°21'1312.5
2016-Dec-08 23:33N 38°30' E 121°05'1212.3
2016-Dec-08 22:33N 38°33' E 120°50'1212.1
2016-Dec-08 21:33N 38°36' E 120°35'11612.7
2016-Dec-08 12:25N 38°54' E 118°08'8 9.2
2016-Dec-08 11:33N 38°57' E 117°58'9 8.8
2016-Dec-08 10:33N 38°59' E 117°47'1 1.0
2016-Dec-08 09:33N 39°00' E 117°47'0 0.0
2016-Dec-08 08:33N 39°00' E 117°47'0 0.0
2016-Dec-08 07:33N 39°00' E 117°47'0 0.0
2016-Dec-08 06:33N 39°00' E 117°47'0 0.0
2016-Dec-08 05:27N 39°00' E 117°47'0 0.0
2016-Dec-08 04:10N 39°00' E 117°47'0 0.0
2016-Dec-08 03:27N 39°00' E 117°47'0 0.0
2016-Dec-08 02:33N 39°00' E 117°47'0 0.0
2016-Dec-08 01:28N 39°00' E 117°47'0 0.0
2016-Dec-08 00:27N 39°00' E 117°47'0 0.0
2016-Dec-07 23:27N 39°00' E 117°47'0 0.1
2016-Dec-07 22:33N 39°00' E 117°47'0 0.1
2016-Dec-07 21:33N 39°00' E 117°47'0 0.0
2016-Dec-07 20:15N 39°00' E 117°47'0 0.0
2016-Dec-07 19:33N 39°00' E 117°47'0 0.0
2016-Dec-07 18:28N 39°00' E 117°47'0 0.1
2016-Dec-07 17:28N 39°00' E 117°47'0 0.0
2016-Dec-07 16:10N 39°00' E 117°47'0 0.0
2016-Dec-07 15:28N 39°00' E 117°47'0 0.0
2016-Dec-07 14:28N 39°00' E 117°47'0 0.0
2016-Dec-07 11:10N 39°00' E 117°47'0 0.0
2016-Dec-07 08:22N 39°00' E 117°47'0 0.1
2016-Dec-07 07:28N 39°00' E 117°47'0 0.0
2016-Dec-07 06:28N 39°00' E 117°47'0 0.0
2016-Dec-07 05:16N 39°00' E 117°47'0 0.0
2016-Dec-07 04:28N 39°00' E 117°47'0 0.0
2016-Dec-07 03:22N 39°00' E 117°47'0 0.0
2016-Dec-07 02:16N 39°00' E 117°47'0 0.0
2016-Dec-07 01:24N 39°00' E 117°47'0 0.0
2016-Dec-07 00:31N 39°00' E 117°47'0 0.0
2016-Dec-06 23:31N 39°00' E 117°47'0 0.0
2016-Dec-06 22:29N 39°00' E 117°47'0 0.0
2016-Dec-06 21:29N 39°00' E 117°47'0 0.0
2016-Dec-06 20:23N 39°00' E 117°47'0 0.0
2016-Dec-06 18:30N 39°00' E 117°47'0 0.0
2016-Dec-06 17:19N 39°00' E 117°47'0 0.0
2016-Dec-06 16:31N 39°00' E 117°47'0 0.0
2016-Dec-06 15:31N 39°00' E 117°47'0 0.0
2016-Dec-06 14:31N 39°00' E 117°47'0 0.0
2016-Dec-06 13:25N 39°00' E 117°47'0 0.0
2016-Dec-06 12:20N 39°00' E 117°47'1 1.7
2016-Dec-06 11:33N 38°59' E 117°48'8 8.2
2016-Dec-06 10:33N 38°57' E 117°58'9 8.7
2016-Dec-06 09:33N 38°55' E 118°09'6 5.9
2016-Dec-06 08:29N 38°52' E 118°16'1415.6
2016-Dec-06 07:33N 38°50' E 118°34'9218.2
2016-Dec-06 02:29N 38°39' E 120°32'1617.7
2016-Dec-06 01:33N 38°37' E 120°52'1918.1
2016-Dec-06 00:32N 38°29' E 121°14'  
2016-Dec-02 22:13N 22°18' E 114°06'2 0.1
2016-Dec-01 23:31N 22°20' E 114°07'  

Dump ship's entire track history